Time;durP1;ratioP1;P1;durP2;ratioP2;P2;SDS_P1;SDS_P2;PMS_P1;PMS_P2;Temp;Humidity;BMP_temperature;BMP_pressure;BME280_temperature;BME280_humidity;BME280_pressure;Samples;Min_cycle;Max_cycle;Signal;HPM_P1;HPM_P2
2022/01/24 00:01:04;;;;;;;9.90;6.47;;;;;;;2.18;56.69;95231.03;5036911;28;20273;-72
2022/01/24 00:03:31;;;;;;;10.03;6.53;;;;;;;2.18;56.76;95231.03;5038380;28;20192;-72
2022/01/24 00:05:58;;;;;;;10.17;6.80;;;;;;;2.15;56.60;95227.84;5031697;28;20192;-72
2022/01/24 00:08:25;;;;;;;8.40;6.37;;;;;;;2.17;56.72;95236.16;5031241;28;20188;-71
2022/01/24 00:10:54;;;;;;;11.50;6.93;;;;;;;2.14;56.88;95232.06;5031404;28;20223;-72
2022/01/24 00:16:20;;;;;;;9.20;6.47;;;;;;;2.15;56.85;95237.91;4989983;28;20262;-72
2022/01/24 00:27:13;;;;;;;8.77;5.77;;;;;;;2.09;57.27;95241.56;4912538;29;20242;-72
2022/01/24 00:29:40;;;;;;;13.13;6.90;;;;;;;2.07;57.04;95242.50;4912294;29;20636;-71
2022/01/24 00:32:09;;;;;;;8.50;6.53;;;;;;;2.09;57.28;95249.13;4912321;29;20227;-73
2022/01/24 00:34:35;;;;;;;8.60;6.30;;;;;;;2.10;57.20;95242.38;4911948;29;20196;-73
2022/01/24 00:37:03;;;;;;;9.67;6.33;;;;;;;2.09;57.46;95246.59;4912346;29;20652;-70
2022/01/24 00:39:30;;;;;;;9.87;6.43;;;;;;;2.07;57.17;95253.41;4912194;29;20206;-71
2022/01/24 00:42:09;;;;;;;10.33;7.07;;;;;;;2.10;57.34;95245.72;4912193;29;20183;-72
2022/01/24 00:44:48;;;;;;;12.83;7.27;;;;;;;2.09;57.35;95249.13;4912217;29;20267;-72
2022/01/24 00:47:23;;;;;;;8.73;6.50;;;;;;;2.09;57.27;95249.13;4912030;29;20199;-72
2022/01/24 00:55:19;;;;;;;6.47;5.80;;;;;;;2.05;57.28;95257.72;5029446;28;20210;-72
2022/01/24 00:57:46;;;;;;;11.43;6.80;;;;;;;2.04;57.39;95255.28;5030676;28;20269;-70
2022/01/24 01:00:14;;;;;;;7.73;6.00;;;;;;;2.00;57.50;95247.06;5030340;28;20199;-71
2022/01/24 01:02:43;;;;;;;8.67;6.57;;;;;;;1.92;57.44;95244.06;5030388;28;20207;-72
2022/01/24 01:05:23;;;;;;;8.10;6.37;;;;;;;2.01;57.51;95256.25;5030334;28;20623;-72
2022/01/24 01:07:57;;;;;;;10.87;7.40;;;;;;;1.99;57.50;95258.84;5030397;28;20187;-73
2022/01/24 01:18:39;;;;;;;9.07;6.67;;;;;;;2.01;57.41;95243.63;5029668;28;20674;-72
2022/01/24 01:21:10;;;;;;;10.47;7.07;;;;;;;2.04;57.67;95250.25;5030311;28;20203;-72
2022/01/24 01:23:41;;;;;;;7.93;6.13;;;;;;;2.01;57.38;95248.66;5029701;28;20286;-70
2022/01/24 01:26:15;;;;;;;9.97;7.07;;;;;;;2.05;57.54;95254.41;5030514;28;20187;-71
2022/01/24 01:28:44;;;;;;;11.30;7.83;;;;;;;2.05;57.37;95250.16;5029656;28;20238;-72
2022/01/24 01:31:21;;;;;;;9.43;6.73;;;;;;;1.92;57.49;95229.75;5030441;28;20215;-73
2022/01/24 01:33:59;;;;;;;9.90;7.17;;;;;;;2.07;57.44;95252.59;5029496;28;20195;-71
2022/01/24 01:36:41;;;;;;;8.67;6.50;;;;;;;2.09;57.41;95253.38;5029859;28;20196;-72
2022/01/24 01:53:25;;;;;;;8.80;7.10;;;;;;;1.92;57.53;95244.88;4949733;29;20205;-72
2022/01/24 01:55:52;;;;;;;11.13;6.93;;;;;;;1.75;57.77;95229.72;4949868;29;20298;-71
2022/01/24 01:58:21;;;;;;;12.50;7.57;;;;;;;1.88;57.77;95250.94;4949167;29;20622;-72
2022/01/24 02:00:51;;;;;;;11.53;6.70;;;;;;;1.85;57.61;95247.75;4949488;29;20202;-71
2022/01/24 02:03:18;;;;;;;9.60;7.13;;;;;;;1.80;57.64;95244.63;4949229;29;20194;-70
2022/01/24 02:05:47;;;;;;;11.13;7.13;;;;;;;1.80;57.42;95249.69;4949056;29;20234;-71
2022/01/24 02:08:15;;;;;;;10.37;7.20;;;;;;;1.73;57.62;95244.13;4949363;29;20201;-71
2022/01/24 02:10:43;;;;;;;11.07;7.43;;;;;;;1.72;57.66;95252.53;4949391;29;20195;-71
2022/01/24 02:13:11;;;;;;;11.33;6.90;;;;;;;1.73;57.57;95244.13;4949518;28;20591;-71
2022/01/24 02:15:46;;;;;;;9.43;7.37;;;;;;;1.68;57.80;95246.00;4948917;29;20666;-72
2022/01/24 02:18:25;;;;;;;11.07;7.10;;;;;;;1.71;57.42;95245.88;4957475;28;20283;-71
2022/01/24 02:21:10;;;;;;;9.70;7.57;;;;;;;1.68;57.78;95246.00;4993114;28;20212;-72
2022/01/24 02:23:45;;;;;;;35.40;21.07;;;;;;;1.69;57.93;95248.47;5029355;28;20282;-71
2022/01/24 02:26:18;;;;;;;20.50;12.97;;;;;;;1.55;58.02;95238.19;5029367;28;20551;-71
2022/01/24 02:28:59;;;;;;;21.87;13.77;;;;;;;1.70;58.26;95254.34;5029042;28;20231;-71
2022/01/24 02:34:21;;;;;;;18.83;11.83;;;;;;;1.66;58.30;95245.28;5026905;28;20578;-71
2022/01/24 02:36:48;;;;;;;17.43;10.13;;;;;;;1.74;57.98;95259.16;5032200;28;20223;-71
2022/01/24 02:39:43;;;;;;;14.00;9.77;;;;;;;1.77;58.05;95263.25;5033442;28;20199;-72
2022/01/24 02:50:39;;;;;;;11.80;8.53;;;;;;;1.65;58.04;95246.97;5032449;28;20730;-71
2022/01/24 02:53:06;;;;;;;13.43;8.53;;;;;;;1.74;57.91;95263.38;5033089;28;20266;-71
2022/01/24 02:55:36;;;;;;;13.33;7.90;;;;;;;1.75;57.89;95275.09;5032550;28;20183;-72
2022/01/24 02:58:03;;;;;;;13.43;9.13;;;;;;;1.74;57.93;95279.34;5032731;28;20192;-73
2022/01/24 03:00:30;;;;;;;12.37;8.70;;;;;;;1.73;57.84;95289.50;5032288;28;20187;-71
2022/01/24 03:02:57;;;;;;;11.90;8.27;;;;;;;1.74;57.96;95286.09;5032105;28;20202;-71
2022/01/24 03:05:24;;;;;;;10.17;7.83;;;;;;;1.75;57.85;95285.19;5032379;28;20191;-71
2022/01/24 03:07:51;;;;;;;11.47;8.57;;;;;;;1.57;58.02;95261.63;5032664;28;20196;-72
2022/01/24 03:10:26;;;;;;;12.10;8.47;;;;;;;1.75;58.05;95293.56;5032571;28;20207;-73
2022/01/24 03:13:10;;;;;;;12.43;7.77;;;;;;;1.75;57.89;95295.28;5032205;28;20804;-71
2022/01/24 03:15:37;;;;;;;11.57;7.80;;;;;;;1.63;57.84;95273.13;5032012;28;20190;-72
2022/01/24 03:18:04;;;;;;;12.90;8.60;;;;;;;1.74;57.94;95289.41;5032006;28;20625;-70
2022/01/24 03:20:30;;;;;;;13.97;7.70;;;;;;;1.77;58.09;95291.00;5031841;28;20199;-71
2022/01/24 03:22:57;;;;;;;13.60;8.33;;;;;;;1.78;58.00;95297.66;5032217;28;20195;-72
2022/01/24 03:25:24;;;;;;;9.07;7.83;;;;;;;1.80;58.26;95298.41;5032239;28;20202;-72
2022/01/24 03:27:51;;;;;;;10.87;7.87;;;;;;;1.65;57.94;95281.47;5032010;28;20725;-71
2022/01/24 03:30:20;;;;;;;12.67;8.40;;;;;;;1.80;57.74;95307.66;5032065;28;20575;-72
2022/01/24 03:32:46;;;;;;;13.40;8.87;;;;;;;1.81;58.01;95307.59;5040167;28;20212;-71
2022/01/24 03:35:13;;;;;;;13.73;8.37;;;;;;;1.78;57.95;95301.88;5032586;28;20199;-70
2022/01/24 03:37:40;;;;;;;10.33;8.20;;;;;;;1.80;58.17;95315.22;5032462;28;20192;-71
2022/01/24 03:40:08;;;;;;;12.40;8.47;;;;;;;1.74;57.87;95306.25;5033957;28;20191;-72
2022/01/24 03:42:35;;;;;;;14.33;8.47;;;;;;;1.81;57.85;95314.34;5031993;28;20196;-73
2022/01/24 03:45:05;;;;;;;15.13;8.47;;;;;;;1.76;58.09;95305.28;5032435;28;20199;-71
2022/01/24 03:47:45;;;;;;;11.23;8.97;;;;;;;1.82;57.92;95319.34;5031846;28;20848;-73
2022/01/24 03:50:17;;;;;;;11.93;8.80;;;;;;;1.85;57.92;95331.78;5031502;28;20192;-71
2022/01/24 03:52:44;;;;;;;13.30;9.37;;;;;;;1.84;58.12;95329.34;5031525;28;20227;-72
2022/01/24 03:55:11;;;;;;;11.70;8.20;;;;;;;1.87;57.99;95330.03;5031749;28;20188;-73
2022/01/24 03:57:39;;;;;;;11.43;8.27;;;;;;;1.88;57.75;95333.34;5032069;28;20218;-71
2022/01/24 04:00:09;;;;;;;12.40;8.40;;;;;;;1.88;57.95;95331.66;5032477;28;20188;-71
2022/01/24 04:02:37;;;;;;;13.63;9.00;;;;;;;1.88;57.76;95331.66;5031288;28;20686;-71
2022/01/24 04:05:05;;;;;;;12.67;8.43;;;;;;;1.88;57.90;95336.69;5034672;28;20195;-72
2022/01/24 04:07:33;;;;;;;10.83;7.87;;;;;;;1.88;57.81;95346.78;5033133;28;20202;-71
2022/01/24 04:10:05;;;;;;;11.10;8.73;;;;;;;1.89;57.61;95345.88;5031987;28;20716;-72
2022/01/24 04:12:32;;;;;;;11.53;9.20;;;;;;;1.88;57.84;95345.97;5032194;28;20215;-72
2022/01/24 04:15:10;;;;;;;11.43;8.50;;;;;;;1.86;57.68;95361.19;5032744;28;20192;-72
2022/01/24 04:17:42;;;;;;;12.63;9.40;;;;;;;1.86;57.54;95362.88;5031233;28;20785;-73
2022/01/24 04:22:56;;;;;;;16.40;10.77;;;;;;;1.78;57.66;95368.25;5031594;28;20249;-72
2022/01/24 04:25:24;;;;;;;11.00;9.53;;;;;;;1.75;57.94;95365.88;5031527;28;20188;-71
2022/01/24 04:27:52;;;;;;;15.23;9.80;;;;;;;1.74;57.94;95370.09;5031704;28;20227;-72
2022/01/24 04:30:19;;;;;;;14.10;9.87;;;;;;;1.72;57.77;95369.31;5031662;28;20210;-72
2022/01/24 04:32:48;;;;;;;14.50;9.83;;;;;;;1.64;57.96;95363.84;5031260;28;20219;-71
2022/01/24 04:35:15;;;;;;;13.70;9.80;;;;;;;1.70;57.98;95383.72;5031450;28;20194;-72
2022/01/24 04:37:42;;;;;;;13.57;9.27;;;;;;;1.67;57.55;95372.94;5032426;28;20203;-73
2022/01/24 04:40:10;;;;;;;11.87;9.07;;;;;;;1.39;57.59;95343.09;5032312;28;20184;-72
2022/01/24 04:42:45;;;;;;;11.63;8.17;;;;;;;1.66;57.50;95391.47;5031099;28;20207;-71
2022/01/24 04:51:02;;;;;;;12.30;8.47;;;;;;;1.56;56.94;95400.34;5030149;28;20213;-71
2022/01/24 04:53:49;;;;;;;9.97;7.27;;;;;;;1.43;56.83;95393.31;5030695;28;20309;-71
2022/01/24 04:56:18;;;;;;;15.53;10.13;;;;;;;1.46;56.67;95402.41;5029508;28;20198;-72
2022/01/24 04:58:45;;;;;;;14.90;11.17;;;;;;;1.42;56.62;95404.25;5030416;28;20202;-71
2022/01/24 05:01:13;;;;;;;12.30;9.40;;;;;;;1.39;56.69;95406.09;5031130;28;20180;-72
2022/01/24 05:03:41;;;;;;;15.60;10.47;;;;;;;1.38;56.58;95410.31;5030482;28;20192;-71
2022/01/24 05:06:08;;;;;;;13.90;9.47;;;;;;;1.36;56.23;95408.75;5029146;28;20199;-73
2022/01/24 05:08:35;;;;;;;13.60;8.57;;;;;;;1.30;56.50;95416.56;5030411;28;20192;-73
2022/01/24 05:11:06;;;;;;;12.43;8.00;;;;;;;1.28;56.24;95423.34;5030239;28;20195;-73
2022/01/24 05:24:32;;;;;;;10.40;7.23;;;;;;;1.10;56.33;95429.97;5030307;28;20183;-72
2022/01/24 05:26:59;;;;;;;12.53;7.80;;;;;;;1.07;56.35;95435.94;5029843;28;20655;-71
2022/01/24 05:29:26;;;;;;;10.70;7.90;;;;;;;1.16;56.13;95447.34;5030203;28;20194;-73
2022/01/24 05:31:53;;;;;;;14.10;8.07;;;;;;;1.15;56.08;95461.63;5029558;28;20691;-72
2022/01/24 05:34:21;;;;;;;10.47;8.27;;;;;;;1.16;56.35;95467.50;5029888;28;20207;-73
2022/01/24 05:36:48;;;;;;;11.57;7.77;;;;;;;1.01;56.22;95451.31;5030128;28;20598;-73
2022/01/24 05:39:15;;;;;;;9.20;7.77;;;;;;;1.15;55.85;95476.75;5029536;28;20196;-72
2022/01/24 05:41:42;;;;;;;12.10;7.90;;;;;;;1.15;56.17;95486.81;5030055;28;20180;-71
2022/01/24 05:44:09;;;;;;;10.27;7.57;;;;;;;1.09;55.85;95466.13;5029601;28;20195;-71
2022/01/24 05:46:36;;;;;;;11.13;7.50;;;;;;;1.11;55.19;95474.41;5029704;28;20584;-70
2022/01/24 05:49:04;;;;;;;9.33;6.90;;;;;;;1.20;55.04;95486.63;5029803;28;20555;-72
2022/01/24 05:51:32;;;;;;;9.80;7.20;;;;;;;1.22;54.45;95487.41;5029257;28;20790;-70
2022/01/24 05:53:59;;;;;;;9.00;7.17;;;;;;;1.24;54.41;95490.69;5029765;28;20227;-73
2022/01/24 05:56:26;;;;;;;8.97;7.00;;;;;;;1.25;54.08;95485.59;5025870;28;20196;-71
2022/01/24 05:58:53;;;;;;;8.87;6.07;;;;;;;1.27;54.13;95498.13;5008019;28;20813;-72
2022/01/24 06:01:19;;;;;;;7.73;6.00;;;;;;;1.31;53.29;95502.16;5007240;28;20200;-74
2022/01/24 06:03:46;;;;;;;9.53;5.77;;;;;;;1.34;53.24;95503.72;5007744;28;20692;-72
2022/01/24 06:06:15;;;;;;;7.13;5.40;;;;;;;1.35;52.56;95515.44;5007537;28;20238;-72
2022/01/24 06:08:43;;;;;;;9.07;5.60;;;;;;;1.34;52.67;95523.88;5007564;28;20200;-73
2022/01/24 06:11:11;;;;;;;6.03;5.17;;;;;;;1.35;52.64;95533.91;5010050;28;20715;-77
2022/01/24 06:13:38;;;;;;;7.20;6.30;;;;;;;1.32;52.69;95531.50;5012094;28;20235;-74
2022/01/24 06:16:06;;;;;;;7.97;5.60;;;;;;;1.27;52.71;95533.38;5012918;28;20196;-72
2022/01/24 06:18:33;;;;;;;7.00;5.73;;;;;;;1.31;52.13;95539.94;5011659;28;20762;-76
2022/01/24 06:20:59;;;;;;;5.30;4.60;;;;;;;1.31;51.94;95546.69;5010392;28;20628;-71
2022/01/24 06:23:26;;;;;;;5.80;5.07;;;;;;;1.30;51.82;95547.56;5011199;28;20208;-80
2022/01/24 06:25:54;;;;;;;7.03;5.03;;;;;;;1.25;52.06;95545.22;5010962;28;20192;-76
2022/01/24 06:28:21;;;;;;;5.73;5.13;;;;;;;1.28;52.20;95546.81;5011021;28;20239;-75
2022/01/24 06:30:48;;;;;;;5.73;4.80;;;;;;;1.30;52.32;95543.34;5011120;28;20250;-79
2022/01/24 06:33:15;;;;;;;8.00;4.80;;;;;;;1.34;51.99;95544.03;5010999;28;20266;-78
2022/01/24 06:35:42;;;;;;;5.57;4.77;;;;;;;1.38;51.77;95545.53;5011003;28;20636;-75
2022/01/24 06:38:09;;;;;;;5.73;5.03;;;;;;;1.33;51.80;95539.88;5010687;28;20204;-74
2022/01/24 06:40:35;;;;;;;6.03;4.20;;;;;;;1.46;51.48;95556.13;5011344;28;20197;-77
2022/01/24 06:43:04;;;;;;;6.33;5.10;;;;;;;1.51;51.19;95554.25;5011725;28;20184;-76
2022/01/24 06:45:31;;;;;;;6.80;4.90;;;;;;;1.35;51.12;95523.00;5011066;28;20579;-77
2022/01/24 06:47:57;;;;;;;7.63;5.27;;;;;;;1.57;51.01;95551.50;5010893;28;20197;-75
2022/01/24 06:50:25;;;;;;;6.03;5.43;;;;;;;1.65;50.96;95562.09;5010708;28;20207;-76
2022/01/24 06:52:51;;;;;;;6.17;5.20;;;;;;;1.69;50.94;95561.09;5010531;28;20252;-76
2022/01/24 06:55:18;;;;;;;7.97;5.17;;;;;;;1.75;50.54;95562.53;5010978;28;20223;-75
2022/01/24 06:57:45;;;;;;;9.60;6.40;;;;;;;1.79;50.66;95560.72;5010539;28;20193;-77
2022/01/24 07:00:15;;;;;;;9.10;5.77;;;;;;;1.85;50.32;95560.44;5010536;28;20189;-76
2022/01/24 07:02:42;;;;;;;8.13;5.83;;;;;;;1.90;50.31;95559.38;5010685;28;20195;-78
2022/01/24 07:05:09;;;;;;;8.50;6.20;;;;;;;1.83;50.28;95540.34;5010606;28;20192;-78
2022/01/24 07:07:36;;;;;;;8.37;5.77;;;;;;;1.97;50.19;95559.94;5011233;28;20192;-75
2022/01/24 07:10:07;;;;;;;8.23;6.07;;;;;;;2.09;49.92;95569.50;5010401;28;20981;-75
2022/01/24 07:12:34;;;;;;;8.60;6.10;;;;;;;2.06;49.67;95566.28;5010460;28;20243;-76
2022/01/24 07:15:06;;;;;;;9.50;5.67;;;;;;;2.17;49.59;95576.75;5010881;28;20184;-76
2022/01/24 07:17:59;;;;;;;7.83;5.77;;;;;;;1.99;49.11;95548.91;5011258;28;20188;-79
2022/01/24 07:20:26;;;;;;;6.73;5.67;;;;;;;2.26;48.99;95579.72;5011461;28;20204;-77
2022/01/24 07:22:53;;;;;;;7.47;5.87;;;;;;;2.15;49.11;95558.34;5018958;28;20203;-75
2022/01/24 07:25:21;;;;;;;8.17;5.77;;;;;;;2.31;48.94;95568.59;5025498;28;20652;-78
2022/01/24 07:27:48;;;;;;;8.23;5.50;;;;;;;2.57;49.01;95585.94;5026329;28;20243;-75
2022/01/24 07:30:14;;;;;;;5.77;4.67;;;;;;;2.75;69.00;95587.66;5028275;28;20205;-76
2022/01/24 07:32:43;;;;;;;5.07;4.53;;;;;;;4.03;100.00;95587.56;5026887;28;20207;-77
2022/01/24 07:35:10;;;;;;;7.10;5.50;;;;;;;5.39;100.00;95580.41;5029082;28;20227;-79
2022/01/24 07:37:38;;;;;;;7.87;5.93;;;;;;;6.11;100.00;95600.97;5026657;28;20192;-79
2022/01/24 07:40:07;;;;;;;7.80;5.93;;;;;;;6.31;94.86;95599.81;5029251;28;20195;-77
2022/01/24 07:42:53;;;;;;;6.63;5.27;;;;;;;6.32;88.64;95604.00;5029304;28;20234;-74
2022/01/24 07:45:21;;;;;;;7.73;5.30;;;;;;;6.24;82.14;95612.06;5028717;28;20187;-73
2022/01/24 07:47:50;;;;;;;5.50;5.00;;;;;;;6.11;75.17;95622.09;5028866;28;20206;-75
2022/01/24 07:50:18;;;;;;;6.43;5.27;;;;;;;5.98;69.89;95623.69;5028596;28;20195;-74
2022/01/24 07:52:45;;;;;;;7.67;6.13;;;;;;;5.76;66.06;95611.38;5028197;28;20219;-74
2022/01/24 07:55:14;;;;;;;7.73;5.90;;;;;;;5.72;63.02;95620.06;5026451;28;20204;-76
2022/01/24 07:57:40;;;;;;;9.13;6.80;;;;;;;5.14;60.37;95568.28;5027082;28;20203;-75
2022/01/24 08:00:10;;;;;;;14.13;5.70;;;;;;;5.48;58.25;95628.13;5024794;28;20679;-76
2022/01/24 08:02:38;;;;;;;7.30;6.17;;;;;;;5.34;56.48;95634.84;5026595;28;20247;-76
2022/01/24 08:05:08;;;;;;;12.80;8.10;;;;;;;5.28;55.00;95651.22;5026507;28;20230;-74
2022/01/24 08:07:35;;;;;;;11.00;7.67;;;;;;;5.20;54.01;95644.00;5022824;28;20219;-75
2022/01/24 08:10:02;;;;;;;12.47;7.70;;;;;;;5.11;52.82;95647.03;5027443;28;20590;-76
2022/01/24 08:12:29;;;;;;;12.63;8.83;;;;;;;4.97;52.02;95637.63;5028075;28;20199;-75
2022/01/24 08:14:56;;;;;;;15.87;9.20;;;;;;;5.01;51.45;95653.50;5026742;28;20195;-75
2022/01/24 08:17:23;;;;;;;12.50;8.73;;;;;;;4.51;50.94;95573.31;5027080;28;20191;-74
2022/01/24 08:19:50;;;;;;;24.00;13.20;;;;;;;4.72;50.76;95619.53;5026984;28;20267;-74
2022/01/24 08:22:19;;;;;;;21.00;12.83;;;;;;;4.99;50.55;95663.69;5024696;28;20230;-72
2022/01/24 08:24:46;;;;;;;19.60;11.73;;;;;;;5.03;50.26;95664.34;5025092;28;20663;-72
2022/01/24 08:27:15;;;;;;;16.60;10.57;;;;;;;5.04;49.84;95669.34;5023556;28;20218;-74
2022/01/24 08:29:43;;;;;;;13.60;9.87;;;;;;;5.12;49.93;95675.72;5027600;28;20254;-74
2022/01/24 08:32:10;;;;;;;14.90;9.37;;;;;;;5.17;49.64;95677.13;5028084;28;20199;-76
2022/01/24 08:34:38;;;;;;;14.53;9.43;;;;;;;5.20;49.23;95673.63;5025927;28;20220;-74
2022/01/24 08:37:05;;;;;;;10.70;8.40;;;;;;;5.33;49.06;95686.47;5024882;28;20207;-76
2022/01/24 08:39:33;;;;;;;14.23;8.30;;;;;;;5.40;48.67;95683.53;5024643;28;20294;-75
2022/01/24 08:42:10;;;;;;;10.17;7.93;;;;;;;5.50;48.60;95683.84;5024290;28;20195;-75
2022/01/24 08:47:19;;;;;;;9.70;7.20;;;;;;;5.63;47.88;95684.00;5023983;28;20204;-75
2022/01/24 08:49:46;;;;;;;8.67;6.40;;;;;;;5.67;47.57;95682.94;5025607;28;20192;-77
2022/01/24 08:52:12;;;;;;;7.00;6.17;;;;;;;5.75;47.39;95690.94;5023818;28;20559;-75
2022/01/24 08:54:41;;;;;;;8.10;6.10;;;;;;;5.79;47.16;95687.34;5025544;28;20215;-74
2022/01/24 08:57:08;;;;;;;8.80;6.33;;;;;;;5.81;46.90;95683.00;5025339;28;20253;-77
2022/01/24 08:59:35;;;;;;;7.57;5.97;;;;;;;5.86;46.66;95697.97;5027319;28;20270;-75
2022/01/24 09:02:03;;;;;;;7.67;5.63;;;;;;;5.88;46.63;95689.38;5024654;28;20896;-75
2022/01/24 09:04:29;;;;;;;7.87;6.30;;;;;;;5.90;46.50;95689.28;5025176;28;20204;-77
2022/01/24 09:06:59;;;;;;;7.47;6.20;;;;;;;5.94;46.28;95696.69;5023655;28;20195;-74
2022/01/24 09:09:26;;;;;;;7.23;5.77;;;;;;;5.96;46.25;95697.44;5025509;28;20227;-73
2022/01/24 09:11:54;;;;;;;8.40;6.80;;;;;;;5.98;46.16;95700.69;5025560;28;20570;-73
2022/01/24 09:14:21;;;;;;;7.00;5.90;;;;;;;6.02;45.95;95694.53;5022979;28;20220;-73
2022/01/24 09:16:48;;;;;;;8.17;7.03;;;;;;;6.05;45.75;95693.56;5024170;28;20203;-74
2022/01/24 09:19:16;;;;;;;7.80;6.60;;;;;;;5.92;45.67;95662.13;5026722;28;20701;-76
2022/01/24 09:21:42;;;;;;;8.73;6.67;;;;;;;6.13;45.47;95693.94;5024832;28;20524;-77
2022/01/24 09:24:09;;;;;;;8.87;6.47;;;;;;;6.17;45.30;95697.94;5025335;28;20204;-76
2022/01/24 09:26:36;;;;;;;10.10;7.00;;;;;;;6.21;45.34;95704.47;5024241;28;20186;-75
2022/01/24 09:29:05;;;;;;;10.57;6.80;;;;;;;6.24;45.06;95699.22;5021492;28;20234;-76
2022/01/24 09:31:32;;;;;;;9.03;6.27;;;;;;;6.30;44.95;95690.44;5026009;28;20214;-78
2022/01/24 09:33:59;;;;;;;10.27;6.80;;;;;;;6.40;44.62;95696.66;5025964;28;20231;-74
2022/01/24 09:36:26;;;;;;;6.80;6.10;;;;;;;6.51;44.27;95696.00;5024709;28;20210;-73
2022/01/24 09:38:52;;;;;;;8.17;7.03;;;;;;;6.64;44.28;95688.50;5025386;28;20231;-74
2022/01/24 09:41:19;;;;;;;8.63;6.87;;;;;;;6.77;43.98;95695.31;5025492;28;20192;-74
2022/01/24 09:43:46;;;;;;;7.43;6.60;;;;;;;6.88;43.61;95694.69;5024240;28;20200;-77
2022/01/24 09:46:15;;;;;;;8.70;6.60;;;;;;;6.96;43.50;95689.97;5028382;28;20667;-76
2022/01/24 09:48:43;;;;;;;6.67;5.50;;;;;;;7.06;43.18;95694.53;5030268;28;20206;-75
2022/01/24 09:51:10;;;;;;;8.40;6.10;;;;;;;7.11;42.96;95695.06;5030837;28;20192;-75
2022/01/24 09:53:38;;;;;;;8.10;6.53;;;;;;;7.19;42.70;95692.88;5030653;28;20230;-75
2022/01/24 09:56:05;;;;;;;13.00;9.10;;;;;;;7.17;42.73;95695.53;5027033;28;20235;-73
2022/01/24 09:58:34;;;;;;;9.97;8.73;;;;;;;7.18;42.64;95692.06;5029626;28;20648;-74
2022/01/24 10:01:01;;;;;;;10.80;8.10;;;;;;;7.13;42.58;95683.91;5029830;28;20195;-76
2022/01/24 10:03:30;;;;;;;10.17;8.20;;;;;;;7.15;42.47;95687.16;5027112;28;20196;-73
2022/01/24 10:05:58;;;;;;;12.17;8.50;;;;;;;7.10;42.41;95690.88;5030461;28;20184;-75
2022/01/24 10:08:26;;;;;;;11.83;8.53;;;;;;;7.03;42.40;95690.41;5027719;28;20606;-78
2022/01/24 10:10:55;;;;;;;13.93;7.77;;;;;;;6.95;42.03;95675.66;5030510;28;20194;-74
2022/01/24 10:16:31;;;;;;;10.87;7.17;;;;;;;6.85;41.66;95682.16;5032422;28;20182;-76
2022/01/24 10:19:09;;;;;;;13.37;7.50;;;;;;;6.89;41.46;95675.19;5032578;28;20195;-75
2022/01/24 10:21:41;;;;;;;9.80;7.50;;;;;;;6.92;41.48;95675.00;5030708;28;20199;-74
2022/01/24 10:24:08;;;;;;;9.73;7.60;;;;;;;6.95;41.34;95673.09;5036986;28;20192;-75
2022/01/24 10:26:35;;;;;;;9.60;6.43;;;;;;;7.05;41.01;95688.63;5042181;28;20203;-75
2022/01/24 10:29:09;;;;;;;8.97;7.40;;;;;;;7.07;40.89;95683.44;5042106;28;20231;-76
2022/01/24 10:31:46;;;;;;;10.80;7.50;;;;;;;6.98;40.67;95682.25;5037862;28;20562;-75
2022/01/24 10:34:18;;;;;;;13.77;8.23;;;;;;;6.83;40.91;95675.56;5031709;28;20227;-74
2022/01/24 10:36:47;;;;;;;10.23;6.97;;;;;;;6.77;40.75;95684.34;5029550;28;20203;-75
2022/01/24 10:39:19;;;;;;;9.00;7.23;;;;;;;6.68;40.67;95683.16;5026448;28;20210;-75
2022/01/24 10:44:35;;;;;;;7.50;5.67;;;;;;;6.60;39.99;95687.03;5031696;28;20198;-75
2022/01/24 10:47:14;;;;;;;7.43;6.60;;;;;;;6.62;39.79;95687.78;5028536;28;20196;-73
2022/01/24 10:49:44;;;;;;;7.67;5.80;;;;;;;6.75;39.72;95681.88;5029688;28;20195;-76
2022/01/24 10:52:12;;;;;;;7.40;5.93;;;;;;;6.69;39.66;95669.56;5030159;28;20219;-74
2022/01/24 10:54:39;;;;;;;7.50;5.40;;;;;;;6.85;39.48;95684.69;5028828;28;20729;-75
2022/01/24 10:57:06;;;;;;;7.90;6.17;;;;;;;6.89;39.53;95688.69;5029687;28;20279;-73
2022/01/24 10:59:36;;;;;;;9.03;5.87;;;;;;;6.87;39.42;95687.19;5029425;28;20215;-76
2022/01/24 11:02:04;;;;;;;9.20;6.40;;;;;;;6.79;39.32;95683.34;5028413;28;20670;-76
2022/01/24 11:04:33;;;;;;;6.73;6.03;;;;;;;6.62;39.36;95678.44;5031580;28;20195;-75
2022/01/24 11:07:03;;;;;;;9.63;6.50;;;;;;;6.56;39.14;95685.59;5029211;28;20199;-75
2022/01/24 11:09:31;;;;;;;10.90;7.47;;;;;;;6.41;39.26;95689.84;5026410;28;20219;-75
2022/01/24 11:11:59;;;;;;;8.80;6.93;;;;;;;6.28;38.83;95689.72;5030907;28;20198;-73
2022/01/24 11:14:27;;;;;;;6.57;5.50;;;;;;;6.18;38.97;95688.63;5030872;28;20298;-73
2022/01/24 11:16:56;;;;;;;9.13;5.83;;;;;;;6.05;38.89;95682.59;5029383;28;20196;-73
2022/01/24 11:19:29;;;;;;;7.13;5.40;;;;;;;5.78;38.92;95657.78;5024650;28;20188;-74
2022/01/24 11:21:57;;;;;;;5.93;5.33;;;;;;;5.88;38.63;95684.31;5029808;28;20663;-75
2022/01/24 11:24:36;;;;;;;6.87;5.07;;;;;;;5.88;38.38;95688.56;5029865;28;20202;-76
2022/01/24 11:27:03;;;;;;;7.67;5.70;;;;;;;5.84;38.24;95680.28;5026849;28;20192;-74
2022/01/24 11:29:31;;;;;;;9.10;5.67;;;;;;;5.79;38.11;95685.63;5031151;28;20206;-72
2022/01/24 11:32:11;;;;;;;7.33;6.03;;;;;;;5.84;38.09;95689.63;5030975;28;20271;-76
2022/01/24 11:34:40;;;;;;;7.47;5.60;;;;;;;5.88;38.18;95683.50;5029932;28;20227;-74
2022/01/24 11:37:08;;;;;;;7.97;6.17;;;;;;;5.84;38.23;95664.25;5028439;28;20184;-78
2022/01/24 11:39:37;;;;;;;7.50;5.53;;;;;;;5.95;38.34;95675.44;5030406;28;20203;-74
2022/01/24 11:42:05;;;;;;;6.53;5.83;;;;;;;5.97;38.08;95672.84;5029834;28;20341;-74
2022/01/24 11:44:50;;;;;;;7.17;5.43;;;;;;;6.03;38.08;95682.66;5027090;28;20261;-75
2022/01/24 11:47:23;;;;;;;8.40;6.10;;;;;;;6.10;37.97;95689.03;5029337;28;20206;-75
2022/01/24 11:49:54;;;;;;;5.57;5.00;;;;;;;6.18;37.72;95683.53;5030296;28;20200;-73
2022/01/24 11:52:30;;;;;;;7.70;5.60;;;;;;;6.25;37.66;95682.25;5029006;28;20196;-75
2022/01/24 11:55:14;;;;;;;6.73;4.80;;;;;;;6.26;37.56;95669.50;5032321;28;20206;-79
2022/01/24 11:57:44;;;;;;;9.87;6.20;;;;;;;6.35;37.52;95680.00;5028442;28;20179;-74
2022/01/24 12:00:19;;;;;;;5.57;5.00;;;;;;;6.35;36.92;95682.53;5029640;28;20210;-73
2022/01/24 12:02:49;;;;;;;7.80;5.70;;;;;;;6.22;37.10;95673.09;5030020;28;20336;-76
2022/01/24 12:05:17;;;;;;;7.77;5.70;;;;;;;6.23;37.16;95689.16;5030370;28;20270;-75
2022/01/24 12:07:47;;;;;;;7.23;6.00;;;;;;;6.01;36.94;95697.97;5028523;28;20659;-73
2022/01/24 12:10:41;;;;;;;8.43;6.60;;;;;;;5.86;36.94;95696.25;5028124;28;20199;-74
2022/01/24 12:13:13;;;;;;;7.80;6.63;;;;;;;5.69;36.68;95684.47;5029365;28;20207;-75
2022/01/24 12:15:58;;;;;;;8.57;6.07;;;;;;;5.68;36.93;95674.41;5029825;28;20314;-74
2022/01/24 12:18:53;;;;;;;7.30;5.77;;;;;;;5.64;37.35;95672.94;5029976;28;20191;-75
2022/01/24 12:21:26;;;;;;;9.53;6.63;;;;;;;5.64;37.29;95686.44;5030134;28;20202;-78
2022/01/24 12:23:54;;;;;;;7.40;6.07;;;;;;;5.62;37.52;95680.66;5029145;28;20210;-76
2022/01/24 12:26:30;;;;;;;10.57;6.10;;;;;;;5.47;37.48;95684.81;5030335;28;20195;-77
2022/01/24 12:29:04;;;;;;;7.03;5.80;;;;;;;5.47;37.63;95696.69;5027498;28;20228;-74
2022/01/24 12:31:42;;;;;;;7.50;5.83;;;;;;;5.35;37.88;95697.34;5027840;28;20675;-73
2022/01/24 12:34:23;;;;;;;6.87;5.40;;;;;;;5.02;38.04;95672.88;5028319;28;20227;-74
2022/01/24 12:37:15;;;;;;;8.90;6.00;;;;;;;5.09;38.16;95701.22;5036116;28;20215;-74
2022/01/24 12:39:53;;;;;;;8.60;6.50;;;;;;;4.99;38.27;95705.97;5031376;28;20195;-74
2022/01/24 12:48:09;;;;;;;6.80;5.23;;;;;;;4.61;38.66;95695.22;5005559;28;20863;-76
2022/01/24 12:50:36;;;;;;;9.13;6.50;;;;;;;4.55;38.63;95703.16;5008529;28;20214;-77
2022/01/24 12:53:10;;;;;;;6.73;5.43;;;;;;;4.63;38.83;95723.84;5002975;28;20196;-77
2022/01/24 12:55:36;;;;;;;10.27;6.13;;;;;;;4.57;39.09;95717.38;5008144;28;20741;-76
2022/01/24 12:58:05;;;;;;;7.13;6.20;;;;;;;4.52;39.36;95720.13;5004476;28;20201;-74
2022/01/24 13:00:34;;;;;;;7.67;5.97;;;;;;;4.48;39.50;95717.81;5005466;28;20234;-75
2022/01/24 13:03:01;;;;;;;6.50;5.70;;;;;;;4.51;39.59;95718.50;5008345;28;20204;-77
2022/01/24 13:05:28;;;;;;;7.27;6.30;;;;;;;4.51;39.73;95707.53;5007523;28;20195;-75
2022/01/24 13:07:57;;;;;;;8.93;6.63;;;;;;;4.56;39.54;95714.91;5004390;28;20200;-75
2022/01/24 13:10:27;;;;;;;7.53;5.97;;;;;;;4.52;39.48;95714.25;5007592;28;20203;-75
2022/01/24 13:13:03;;;;;;;6.97;6.10;;;;;;;4.49;39.24;95710.16;5002269;28;20196;-76
2022/01/24 13:21:11;;;;;;;6.57;5.87;;;;;;;4.31;38.78;95711.03;5007176;28;20202;-76